sensor_id;sensor_type;location;lat;lon;timestamp;temperature;humidity
53978;DHT22;39886;47.984;-1.586;2024-01-15T00:01:50;18.20;65.50
53978;DHT22;39886;47.984;-1.586;2024-01-15T00:04:16;18.00;65.70
53978;DHT22;39886;47.984;-1.586;2024-01-15T00:06:42;17.90;65.80
53978;DHT22;39886;47.984;-1.586;2024-01-15T00:09:07;17.80;66.00
53978;DHT22;39886;47.984;-1.586;2024-01-15T00:11:33;17.80;66.40
53978;DHT22;39886;47.984;-1.586;2024-01-15T00:13:59;17.70;65.50
53978;DHT22;39886;47.984;-1.586;2024-01-15T00:16:25;17.60;65.40
53978;DHT22;39886;47.984;-1.586;2024-01-15T00:18:50;17.50;65.10
53978;DHT22;39886;47.984;-1.586;2024-01-15T00:21:16;17.40;65.10
53978;DHT22;39886;47.984;-1.586;2024-01-15T00:23:44;17.40;65.40
53978;DHT22;39886;47.984;-1.586;2024-01-15T00:26:10;17.30;65.40
53978;DHT22;39886;47.984;-1.586;2024-01-15T00:28:37;17.30;65.50
53978;DHT22;39886;47.984;-1.586;2024-01-15T00:31:06;17.30;65.60
53978;DHT22;39886;47.984;-1.586;2024-01-15T00:33:32;17.20;65.50
53978;DHT22;39886;47.984;-1.586;2024-01-15T00:35:57;17.20;65.60
53978;DHT22;39886;47.984;-1.586;2024-01-15T00:38:24;17.20;65.50
53978;DHT22;39886;47.984;-1.586;2024-01-15T00:40:50;17.20;65.70
53978;DHT22;39886;47.984;-1.586;2024-01-15T00:43:16;17.30;65.40
53978;DHT22;39886;47.984;-1.586;2024-01-15T00:45:43;17.40;65.30
53978;DHT22;39886;47.984;-1.586;2024-01-15T00:48:09;17.50;65.00
53978;DHT22;39886;47.984;-1.586;2024-01-15T00:50:35;17.60;65.00
53978;DHT22;39886;47.984;-1.586;2024-01-15T00:53:01;17.70;64.70
53978;DHT22;39886;47.984;-1.586;2024-01-15T00:55:28;17.80;64.60
53978;DHT22;39886;47.984;-1.586;2024-01-15T00:57:54;17.90;64.40
53978;DHT22;39886;47.984;-1.586;2024-01-15T01:00:20;18.00;64.30
53978;DHT22;39886;47.984;-1.586;2024-01-15T01:02:45;18.10;64.20
53978;DHT22;39886;47.984;-1.586;2024-01-15T01:05:11;18.20;64.30
53978;DHT22;39886;47.984;-1.586;2024-01-15T01:07:37;18.30;64.00
53978;DHT22;39886;47.984;-1.586;2024-01-15T01:10:03;18.30;64.20
53978;DHT22;39886;47.984;-1.586;2024-01-15T01:12:29;18.40;64.00
53978;DHT22;39886;47.984;-1.586;2024-01-15T01:14:55;18.50;63.90
53978;DHT22;39886;47.984;-1.586;2024-01-15T01:17:21;18.50;63.70
53978;DHT22;39886;47.984;-1.586;2024-01-15T01:19:47;18.50;63.90
53978;DHT22;39886;47.984;-1.586;2024-01-15T01:22:13;18.60;63.70
53978;DHT22;39886;47.984;-1.586;2024-01-15T01:24:39;18.60;64.00
53978;DHT22;39886;47.984;-1.586;2024-01-15T01:27:04;18.70;63.90
53978;DHT22;39886;47.984;-1.586;2024-01-15T01:29:30;18.70;63.90
53978;DHT22;39886;47.984;-1.586;2024-01-15T01:31:56;18.70;63.80
53978;DHT22;39886;47.984;-1.586;2024-01-15T01:34:22;18.80;63.90
53978;DHT22;39886;47.984;-1.586;2024-01-15T01:36:48;18.80;63.70
53978;DHT22;39886;47.984;-1.586;2024-01-15T01:39:13;18.80;63.60
53978;DHT22;39886;47.984;-1.586;2024-01-15T01:41:39;18.80;63.70
53978;DHT22;39886;47.984;-1.586;2024-01-15T01:44:05;18.90;64.20
53978;DHT22;39886;47.984;-1.586;2024-01-15T01:46:32;18.90;64.30
53978;DHT22;39886;47.984;-1.586;2024-01-15T01:48:59;18.90;64.20
53978;DHT22;39886;47.984;-1.586;2024-01-15T01:51:31;19.00;64.00
53978;DHT22;39886;47.984;-1.586;2024-01-15T01:53:57;19.00;64.20
53978;DHT22;39886;47.984;-1.586;2024-01-15T01:56:23;19.00;64.10
53978;DHT22;39886;47.984;-1.586;2024-01-15T01:58:48;19.10;64.80
53978;DHT22;39886;47.984;-1.586;2024-01-15T02:01:15;19.10;64.60
53978;DHT22;39886;47.984;-1.586;2024-01-15T02:03:41;19.10;64.40
53978;DHT22;39886;47.984;-1.586;2024-01-15T02:06:07;19.10;64.60
53978;DHT22;39886;47.984;-1.586;2024-01-15T02:08:33;19.10;64.60
53978;DHT22;39886;47.984;-1.586;2024-01-15T02:11:00;19.20;64.40
53978;DHT22;39886;47.984;-1.586;2024-01-15T02:13:26;19.20;64.50
53978;DHT22;39886;47.984;-1.586;2024-01-15T02:15:51;19.20;64.60
53978;DHT22;39886;47.984;-1.586;2024-01-15T02:18:17;19.20;64.70
53978;DHT22;39886;47.984;-1.586;2024-01-15T02:20:43;19.30;64.70
53978;DHT22;39886;47.984;-1.586;2024-01-15T02:23:13;19.30;64.50
53978;DHT22;39886;47.984;-1.586;2024-01-15T02:25:46;19.30;64.80
53978;DHT22;39886;47.984;-1.586;2024-01-15T02:28:16;19.30;64.90
53978;DHT22;39886;47.984;-1.586;2024-01-15T02:30:43;19.40;64.80
53978;DHT22;39886;47.984;-1.586;2024-01-15T02:33:10;19.40;65.00
53978;DHT22;39886;47.984;-1.586;2024-01-15T02:35:36;19.40;65.10
53978;DHT22;39886;47.984;-1.586;2024-01-15T02:38:03;19.40;65.10
53978;DHT22;39886;47.984;-1.586;2024-01-15T02:40:29;19.40;65.40
53978;DHT22;39886;47.984;-1.586;2024-01-15T02:42:54;19.40;65.40
53978;DHT22;39886;47.984;-1.586;2024-01-15T02:45:21;19.40;65.20
53978;DHT22;39886;47.984;-1.586;2024-01-15T02:47:47;19.40;65.40
53978;DHT22;39886;47.984;-1.586;2024-01-15T02:50:13;19.50;65.80
53978;DHT22;39886;47.984;-1.586;2024-01-15T02:52:39;19.50;65.40
53978;DHT22;39886;47.984;-1.586;2024-01-15T02:55:05;19.50;65.60
53978;DHT22;39886;47.984;-1.586;2024-01-15T02:57:31;19.50;65.60
53978;DHT22;39886;47.984;-1.586;2024-01-15T02:59:56;19.50;65.50
53978;DHT22;39886;47.984;-1.586;2024-01-15T03:02:22;19.50;65.50
53978;DHT22;39886;47.984;-1.586;2024-01-15T03:04:48;19.50;65.90
53978;DHT22;39886;47.984;-1.586;2024-01-15T03:07:14;19.60;65.40
53978;DHT22;39886;47.984;-1.586;2024-01-15T03:09:40;19.60;65.50
53978;DHT22;39886;47.984;-1.586;2024-01-15T03:12:05;19.60;65.50
53978;DHT22;39886;47.984;-1.586;2024-01-15T03:14:31;19.60;65.70
53978;DHT22;39886;47.984;-1.586;2024-01-15T03:16:57;19.60;65.40
53978;DHT22;39886;47.984;-1.586;2024-01-15T03:19:23;19.60;65.70
53978;DHT22;39886;47.984;-1.586;2024-01-15T03:21:49;19.60;65.50
53978;DHT22;39886;47.984;-1.586;2024-01-15T03:24:14;19.60;65.50
53978;DHT22;39886;47.984;-1.586;2024-01-15T03:26:40;19.60;65.60
53978;DHT22;39886;47.984;-1.586;2024-01-15T03:29:06;19.60;65.60
53978;DHT22;39886;47.984;-1.586;2024-01-15T03:31:32;19.60;65.60
53978;DHT22;39886;47.984;-1.586;2024-01-15T03:33:58;19.70;65.90
53978;DHT22;39886;47.984;-1.586;2024-01-15T03:36:24;19.70;66.40
53978;DHT22;39886;47.984;-1.586;2024-01-15T03:38:49;19.70;66.00
53978;DHT22;39886;47.984;-1.586;2024-01-15T03:41:15;19.70;66.10
53978;DHT22;39886;47.984;-1.586;2024-01-15T03:43:41;19.70;66.40
53978;DHT22;39886;47.984;-1.586;2024-01-15T03:46:07;19.70;66.20
53978;DHT22;39886;47.984;-1.586;2024-01-15T03:48:32;19.70;66.50
53978;DHT22;39886;47.984;-1.586;2024-01-15T03:50:58;19.80;66.50
53978;DHT22;39886;47.984;-1.586;2024-01-15T03:53:24;19.70;66.40
53978;DHT22;39886;47.984;-1.586;2024-01-15T03:55:51;19.80;66.40
53978;DHT22;39886;47.984;-1.586;2024-01-15T03:58:17;19.80;66.60
53978;DHT22;39886;47.984;-1.586;2024-01-15T04:00:43;19.80;66.80
53978;DHT22;39886;47.984;-1.586;2024-01-15T04:03:08;19.80;66.70
53978;DHT22;39886;47.984;-1.586;2024-01-15T04:05:34;19.80;66.80
53978;DHT22;39886;47.984;-1.586;2024-01-15T04:08:00;19.80;66.80
53978;DHT22;39886;47.984;-1.586;2024-01-15T04:10:26;19.80;67.00
53978;DHT22;39886;47.984;-1.586;2024-01-15T04:12:51;19.80;67.00
53978;DHT22;39886;47.984;-1.586;2024-01-15T04:15:17;19.80;67.00
53978;DHT22;39886;47.984;-1.586;2024-01-15T04:17:43;19.90;67.40
53978;DHT22;39886;47.984;-1.586;2024-01-15T04:20:09;19.80;67.10
53978;DHT22;39886;47.984;-1.586;2024-01-15T04:22:35;19.80;67.70
53978;DHT22;39886;47.984;-1.586;2024-01-15T04:25:02;19.90;67.40
53978;DHT22;39886;47.984;-1.586;2024-01-15T04:27:28;19.90;67.20
53978;DHT22;39886;47.984;-1.586;2024-01-15T04:29:53;19.90;67.90
53978;DHT22;39886;47.984;-1.586;2024-01-15T04:32:19;19.90;67.40
53978;DHT22;39886;47.984;-1.586;2024-01-15T04:34:45;19.90;67.70
53978;DHT22;39886;47.984;-1.586;2024-01-15T04:37:11;19.90;67.70
53978;DHT22;39886;47.984;-1.586;2024-01-15T04:39:36;19.90;67.70
53978;DHT22;39886;47.984;-1.586;2024-01-15T04:42:03;19.90;67.70
53978;DHT22;39886;47.984;-1.586;2024-01-15T04:44:29;19.90;67.70
53978;DHT22;39886;47.984;-1.586;2024-01-15T04:46:54;19.90;67.80
53978;DHT22;39886;47.984;-1.586;2024-01-15T04:49:20;19.90;68.00
53978;DHT22;39886;47.984;-1.586;2024-01-15T04:51:46;19.90;68.50
53978;DHT22;39886;47.984;-1.586;2024-01-15T04:54:12;20.00;68.10
53978;DHT22;39886;47.984;-1.586;2024-01-15T04:56:37;20.00;68.60
53978;DHT22;39886;47.984;-1.586;2024-01-15T04:59:03;20.00;68.80
53978;DHT22;39886;47.984;-1.586;2024-01-15T05:01:33;20.00;69.00
53978;DHT22;39886;47.984;-1.586;2024-01-15T05:03:59;20.00;69.00
53978;DHT22;39886;47.984;-1.586;2024-01-15T05:06:24;20.00;69.10
53978;DHT22;39886;47.984;-1.586;2024-01-15T05:08:50;20.00;69.10
53978;DHT22;39886;47.984;-1.586;2024-01-15T05:11:16;20.00;69.30
53978;DHT22;39886;47.984;-1.586;2024-01-15T05:13:42;20.00;69.80
53978;DHT22;39886;47.984;-1.586;2024-01-15T05:16:07;20.00;69.80
53978;DHT22;39886;47.984;-1.586;2024-01-15T05:18:33;20.00;70.20
53978;DHT22;39886;47.984;-1.586;2024-01-15T05:20:59;20.00;70.60
53978;DHT22;39886;47.984;-1.586;2024-01-15T05:23:25;20.00;71.20
53978;DHT22;39886;47.984;-1.586;2024-01-15T05:25:50;20.00;71.10
53978;DHT22;39886;47.984;-1.586;2024-01-15T05:28:16;20.00;71.40
53978;DHT22;39886;47.984;-1.586;2024-01-15T05:30:42;20.00;71.50
53978;DHT22;39886;47.984;-1.586;2024-01-15T05:33:08;20.00;71.70
53978;DHT22;39886;47.984;-1.586;2024-01-15T05:35:34;20.00;71.80
53978;DHT22;39886;47.984;-1.586;2024-01-15T05:38:00;20.00;71.70
53978;DHT22;39886;47.984;-1.586;2024-01-15T05:40:25;20.00;72.00
53978;DHT22;39886;47.984;-1.586;2024-01-15T05:42:51;20.00;72.20
53978;DHT22;39886;47.984;-1.586;2024-01-15T05:45:17;20.00;72.00
53978;DHT22;39886;47.984;-1.586;2024-01-15T05:47:43;20.00;72.60
53978;DHT22;39886;47.984;-1.586;2024-01-15T05:50:09;20.00;72.80
53978;DHT22;39886;47.984;-1.586;2024-01-15T05:52:35;20.00;73.20
53978;DHT22;39886;47.984;-1.586;2024-01-15T05:55:01;20.00;74.20
53978;DHT22;39886;47.984;-1.586;2024-01-15T05:57:27;20.00;73.40
53978;DHT22;39886;47.984;-1.586;2024-01-15T05:59:53;20.10;73.00
53978;DHT22;39886;47.984;-1.586;2024-01-15T06:02:19;20.00;74.60
53978;DHT22;39886;47.984;-1.586;2024-01-15T06:04:45;20.00;75.00
53978;DHT22;39886;47.984;-1.586;2024-01-15T06:07:10;20.00;78.00
53978;DHT22;39886;47.984;-1.586;2024-01-15T06:09:36;20.10;74.30
53978;DHT22;39886;47.984;-1.586;2024-01-15T06:12:02;20.00;73.60
53978;DHT22;39886;47.984;-1.586;2024-01-15T06:14:28;20.10;73.50
53978;DHT22;39886;47.984;-1.586;2024-01-15T06:16:54;20.10;74.30
53978;DHT22;39886;47.984;-1.586;2024-01-15T06:19:20;20.10;73.90
53978;DHT22;39886;47.984;-1.586;2024-01-15T06:21:46;20.10;73.70
53978;DHT22;39886;47.984;-1.586;2024-01-15T06:24:12;20.10;73.90
53978;DHT22;39886;47.984;-1.586;2024-01-15T06:26:39;20.10;73.80
53978;DHT22;39886;47.984;-1.586;2024-01-15T06:29:04;20.10;73.70
53978;DHT22;39886;47.984;-1.586;2024-01-15T06:31:30;20.10;73.80
53978;DHT22;39886;47.984;-1.586;2024-01-15T06:33:56;20.10;73.90
53978;DHT22;39886;47.984;-1.586;2024-01-15T06:36:21;20.10;73.80
53978;DHT22;39886;47.984;-1.586;2024-01-15T06:38:47;20.10;73.90
53978;DHT22;39886;47.984;-1.586;2024-01-15T06:41:13;20.10;74.40
53978;DHT22;39886;47.984;-1.586;2024-01-15T06:43:39;20.10;75.20
53978;DHT22;39886;47.984;-1.586;2024-01-15T06:46:04;20.10;74.10
53978;DHT22;39886;47.984;-1.586;2024-01-15T06:48:30;20.20;74.00
53978;DHT22;39886;47.984;-1.586;2024-01-15T06:50:56;20.10;74.10
53978;DHT22;39886;47.984;-1.586;2024-01-15T06:53:22;20.10;74.00
53978;DHT22;39886;47.984;-1.586;2024-01-15T06:55:48;20.20;74.80
53978;DHT22;39886;47.984;-1.586;2024-01-15T06:58:14;20.10;74.10
53978;DHT22;39886;47.984;-1.586;2024-01-15T07:00:40;20.10;74.70
53978;DHT22;39886;47.984;-1.586;2024-01-15T07:03:06;20.20;75.50
53978;DHT22;39886;47.984;-1.586;2024-01-15T07:05:32;20.20;76.10
53978;DHT22;39886;47.984;-1.586;2024-01-15T07:07:58;20.20;74.70
53978;DHT22;39886;47.984;-1.586;2024-01-15T07:10:24;20.20;75.00
53978;DHT22;39886;47.984;-1.586;2024-01-15T07:12:50;20.20;74.40
53978;DHT22;39886;47.984;-1.586;2024-01-15T07:15:16;20.20;74.40
53978;DHT22;39886;47.984;-1.586;2024-01-15T07:17:41;20.10;74.90
53978;DHT22;39886;47.984;-1.586;2024-01-15T07:20:09;20.10;73.70
53978;DHT22;39886;47.984;-1.586;2024-01-15T07:22:37;20.00;73.40
53978;DHT22;39886;47.984;-1.586;2024-01-15T07:25:03;20.00;73.70
53978;DHT22;39886;47.984;-1.586;2024-01-15T07:27:30;19.90;73.60
53978;DHT22;39886;47.984;-1.586;2024-01-15T07:29:57;19.90;73.70
53978;DHT22;39886;47.984;-1.586;2024-01-15T07:32:23;20.00;73.90
53978;DHT22;39886;47.984;-1.586;2024-01-15T07:34:49;20.00;73.70
53978;DHT22;39886;47.984;-1.586;2024-01-15T07:37:15;19.90;73.90
53978;DHT22;39886;47.984;-1.586;2024-01-15T07:39:40;19.90;73.70
53978;DHT22;39886;47.984;-1.586;2024-01-15T07:42:06;19.90;73.40
53978;DHT22;39886;47.984;-1.586;2024-01-15T07:44:33;19.90;73.70
53978;DHT22;39886;47.984;-1.586;2024-01-15T07:46:59;19.90;72.50
53978;DHT22;39886;47.984;-1.586;2024-01-15T07:49:25;19.90;72.80
53978;DHT22;39886;47.984;-1.586;2024-01-15T07:51:50;19.90;72.80
53978;DHT22;39886;47.984;-1.586;2024-01-15T07:54:16;20.00;72.60
53978;DHT22;39886;47.984;-1.586;2024-01-15T07:59:21;20.00;73.30
53978;DHT22;39886;47.984;-1.586;2024-01-15T08:01:46;20.10;73.50
53978;DHT22;39886;47.984;-1.586;2024-01-15T08:04:13;20.00;73.50
53978;DHT22;39886;47.984;-1.586;2024-01-15T08:06:39;20.10;73.80
53978;DHT22;39886;47.984;-1.586;2024-01-15T08:09:04;20.20;73.90
53978;DHT22;39886;47.984;-1.586;2024-01-15T08:11:30;20.20;73.80
53978;DHT22;39886;47.984;-1.586;2024-01-15T08:13:56;20.20;73.80
53978;DHT22;39886;47.984;-1.586;2024-01-15T08:16:22;20.30;73.80
53978;DHT22;39886;47.984;-1.586;2024-01-15T08:18:49;20.40;75.20
53978;DHT22;39886;47.984;-1.586;2024-01-15T08:21:15;20.40;75.10
53978;DHT22;39886;47.984;-1.586;2024-01-15T08:23:41;20.40;75.20
53978;DHT22;39886;47.984;-1.586;2024-01-15T08:26:07;20.40;75.60
53978;DHT22;39886;47.984;-1.586;2024-01-15T08:28:34;20.50;75.70
53978;DHT22;39886;47.984;-1.586;2024-01-15T08:31:00;20.50;76.40
53978;DHT22;39886;47.984;-1.586;2024-01-15T08:33:25;20.50;76.50
53978;DHT22;39886;47.984;-1.586;2024-01-15T08:35:51;20.50;77.00
53978;DHT22;39886;47.984;-1.586;2024-01-15T08:38:18;20.60;76.90
53978;DHT22;39886;47.984;-1.586;2024-01-15T08:40:44;20.60;77.00
53978;DHT22;39886;47.984;-1.586;2024-01-15T08:43:10;20.60;77.50
53978;DHT22;39886;47.984;-1.586;2024-01-15T08:45:35;20.70;77.20
53978;DHT22;39886;47.984;-1.586;2024-01-15T08:48:01;20.80;77.50
53978;DHT22;39886;47.984;-1.586;2024-01-15T08:50:28;20.70;77.50
53978;DHT22;39886;47.984;-1.586;2024-01-15T08:52:55;20.80;77.40
53978;DHT22;39886;47.984;-1.586;2024-01-15T08:55:21;20.80;77.80
53978;DHT22;39886;47.984;-1.586;2024-01-15T08:57:48;20.90;77.90
53978;DHT22;39886;47.984;-1.586;2024-01-15T09:00:14;21.00;78.90
53978;DHT22;39886;47.984;-1.586;2024-01-15T09:02:40;21.00;78.40
53978;DHT22;39886;47.984;-1.586;2024-01-15T09:05:06;21.10;78.00
53978;DHT22;39886;47.984;-1.586;2024-01-15T09:07:32;21.10;78.70
53978;DHT22;39886;47.984;-1.586;2024-01-15T09:09:58;21.10;78.50
53978;DHT22;39886;47.984;-1.586;2024-01-15T09:12:28;21.10;78.60
53978;DHT22;39886;47.984;-1.586;2024-01-15T09:14:53;21.10;78.90
53978;DHT22;39886;47.984;-1.586;2024-01-15T09:17:22;21.10;78.70
53978;DHT22;39886;47.984;-1.586;2024-01-15T09:19:50;21.20;78.30
53978;DHT22;39886;47.984;-1.586;2024-01-15T09:22:16;21.30;78.40
53978;DHT22;39886;47.984;-1.586;2024-01-15T09:24:45;21.30;78.70
53978;DHT22;39886;47.984;-1.586;2024-01-15T09:27:11;21.20;78.50
53978;DHT22;39886;47.984;-1.586;2024-01-15T09:29:37;21.30;78.30
53978;DHT22;39886;47.984;-1.586;2024-01-15T09:32:07;21.30;78.10
53978;DHT22;39886;47.984;-1.586;2024-01-15T09:34:34;21.30;78.10
53978;DHT22;39886;47.984;-1.586;2024-01-15T09:36:59;21.40;78.40
53978;DHT22;39886;47.984;-1.586;2024-01-15T09:39:26;21.40;78.50
53978;DHT22;39886;47.984;-1.586;2024-01-15T09:41:53;21.40;78.10
53978;DHT22;39886;47.984;-1.586;2024-01-15T09:44:19;21.40;75.10
53978;DHT22;39886;47.984;-1.586;2024-01-15T09:46:46;21.50;74.50
53978;DHT22;39886;47.984;-1.586;2024-01-15T09:49:12;21.50;75.70
53978;DHT22;39886;47.984;-1.586;2024-01-15T09:51:39;21.50;75.40
53978;DHT22;39886;47.984;-1.586;2024-01-15T09:54:05;21.50;75.10
53978;DHT22;39886;47.984;-1.586;2024-01-15T09:56:31;21.60;74.60
53978;DHT22;39886;47.984;-1.586;2024-01-15T09:58:57;21.60;74.80
53978;DHT22;39886;47.984;-1.586;2024-01-15T10:01:24;21.60;74.80
53978;DHT22;39886;47.984;-1.586;2024-01-15T10:03:50;21.60;75.00
53978;DHT22;39886;47.984;-1.586;2024-01-15T10:06:16;21.60;74.60
53978;DHT22;39886;47.984;-1.586;2024-01-15T10:08:49;21.50;75.30
53978;DHT22;39886;47.984;-1.586;2024-01-15T10:11:15;21.60;75.40
53978;DHT22;39886;47.984;-1.586;2024-01-15T10:21:03;21.70;85.10
53978;DHT22;39886;47.984;-1.586;2024-01-15T10:23:31;21.80;69.50
53978;DHT22;39886;47.984;-1.586;2024-01-15T10:25:57;21.80;69.80
53978;DHT22;39886;47.984;-1.586;2024-01-15T10:28:26;21.80;70.40
53978;DHT22;39886;47.984;-1.586;2024-01-15T10:30:55;21.80;71.10
53978;DHT22;39886;47.984;-1.586;2024-01-15T10:33:23;21.70;71.70
53978;DHT22;39886;47.984;-1.586;2024-01-15T10:35:56;21.80;71.90
53978;DHT22;39886;47.984;-1.586;2024-01-15T10:38:23;21.80;72.90
